KLVJ

Pearland Regional Airport

Houston, Texas, USA
METAR KLVJ 231953Z AUTO 02009KT 10SM -RA SCT021 BKN050 OVC110 16/15 A3010 RMK AO2 RAB23 SLP193 P0001 T01560150
Observed Flight Rules
Oct-23 @ 19:53 UTC (39 minutes ago) Visual Flight Rules
Wind Visibility Clouds Conditions
20° at 9 knots 10 miles
  • Scattered at 2,100' AGL
  • Broken at 5,000' AGL
  • Overcast at 11,000' AGL
  • Light Rain
Temperatures Readings Precipitation
Current 16°C / 61°F
Dewpoint 15°C / 59°F
Humidity 94%
Altimeter 30.1" Hg
Pressure 1019.3 hPa
Elevation 12
Current Rain 0.01
METAR KLVJ 231953Z AUTO 02009KT 10SM -RA SCT021 BKN050 OVC110 16/15 A3010 RMK AO2 RAB23 SLP193 P0001 T01560150
Observed Flight Rules
Oct-23 @ 19:53 UTC
(39 minutes ago)
VFR
Wind Visibility
20° at 9 knots 10 miles
Clouds
  • Scattered at 2,100' AGL
  • Broken at 5,000' AGL
  • Overcast at 11,000' AGL
Conditions
  • Light Rain
Temperature Dewpoint
16°C / 61°F 15°C / 59°F
Humidity Altimeter Pressure
94% 30.1" Hg 1019.3 hPa
Current Rain
0.01